createdAt,value
2018-05-21T00:00:47.834Z,98297.94
2018-05-21T00:03:15.577Z,98292.97
2018-05-21T00:05:43.100Z,98297.55
2018-05-21T00:08:10.618Z,98291.85
2018-05-21T00:10:38.363Z,98292.30
2018-05-21T00:13:06.977Z,98292.30
2018-05-21T00:15:34.486Z,98289.51
2018-05-21T00:18:01.986Z,98288.34
2018-05-21T00:20:29.579Z,98292.95
2018-05-21T00:22:57.169Z,98286.81
2018-05-21T00:25:24.667Z,98281.45
2018-05-21T00:27:52.219Z,98292.52
2018-05-21T00:30:19.767Z,98287.37
2018-05-21T00:32:47.311Z,98284.50
2018-05-21T00:35:14.925Z,98284.71
2018-05-21T00:37:42.509Z,98286.66
2018-05-21T00:40:10.070Z,98282.12
2018-05-21T00:42:39.698Z,98279.25
2018-05-21T00:45:07.665Z,98283.86
2018-05-21T00:47:36.034Z,98280.16
2018-05-21T00:50:03.726Z,98281.47
2018-05-21T00:52:31.266Z,98276.21
2018-05-21T00:55:10.682Z,98277.38
2018-05-21T00:57:38.207Z,98275.56
2018-05-21T01:00:05.754Z,98273.10
2018-05-21T01:02:33.365Z,98272.95
2018-05-21T01:05:00.958Z,98274.58
2018-05-21T01:07:28.465Z,98274.42
2018-05-21T01:09:55.973Z,98274.30
2018-05-21T01:12:23.695Z,98276.45
2018-05-21T01:14:51.260Z,98279.22
2018-05-21T01:17:18.831Z,98275.52
2018-05-21T01:19:46.395Z,98277.29
2018-05-21T01:22:14.965Z,98275.55
2018-05-21T01:24:42.517Z,98269.66
2018-05-21T01:27:10.084Z,98269.95
2018-05-21T01:29:37.578Z,98272.17
2018-05-21T01:32:05.153Z,98278.51
2018-05-21T01:34:32.694Z,98270.16
2018-05-21T01:37:00.230Z,98279.34
2018-05-21T01:39:27.740Z,98272.47
2018-05-21T01:41:55.253Z,98275.83
2018-05-21T01:44:22.781Z,98274.50
2018-05-21T01:46:50.300Z,98272.05
2018-05-21T01:49:17.813Z,98268.25
2018-05-21T01:51:45.317Z,98271.17
2018-05-21T01:54:12.925Z,98278.70
2018-05-21T01:56:40.462Z,98274.48
2018-05-21T01:59:07.994Z,98280.63
2018-05-21T02:01:35.535Z,98275.03
2018-05-21T02:04:03.080Z,98268.59
2018-05-21T02:06:30.627Z,98271.45
2018-05-21T02:08:58.148Z,98270.60
2018-05-21T02:11:25.651Z,98268.25
2018-05-21T02:13:53.199Z,98272.97
2018-05-21T02:16:20.720Z,98275.41
2018-05-21T02:18:48.228Z,98273.39
2018-05-21T02:21:15.839Z,98271.08
2018-05-21T02:23:43.388Z,98269.16
2018-05-21T02:26:11.606Z,98258.05
2018-05-21T02:28:39.154Z,98261.88
2018-05-21T02:31:06.719Z,98257.86
2018-05-21T02:33:34.369Z,98261.45
2018-05-21T02:36:02.028Z,98256.19
2018-05-21T02:38:29.560Z,98256.32
2018-05-21T02:40:57.080Z,98259.72
2018-05-21T02:43:24.577Z,98255.55
2018-05-21T02:45:52.178Z,98258.83
2018-05-21T02:48:19.706Z,98251.85
2018-05-21T02:50:47.218Z,98258.59
2018-05-21T02:53:14.719Z,98257.67
2018-05-21T02:55:42.237Z,98261.55
2018-05-21T02:58:09.794Z,98261.68
2018-05-21T03:00:37.398Z,98263.59
2018-05-21T03:03:05.402Z,98263.55
2018-05-21T03:05:32.927Z,98259.86
2018-05-21T03:08:00.477Z,98266.28
2018-05-21T03:10:28.020Z,98269.55
2018-05-21T03:12:55.530Z,98264.49
2018-05-21T03:15:23.067Z,98264.88
2018-05-21T03:17:50.608Z,98259.08
2018-05-21T03:20:18.137Z,98273.95
2018-05-21T03:22:45.786Z,98262.99
2018-05-21T03:25:13.330Z,98266.55
2018-05-21T03:27:41.560Z,98268.42
2018-05-21T03:30:10.100Z,98271.25
2018-05-21T03:32:37.862Z,98271.07
2018-05-21T03:35:05.413Z,98269.91
2018-05-21T03:37:32.926Z,98267.12
2018-05-21T03:40:00.526Z,98265.88
2018-05-21T03:42:28.218Z,98274.69
2018-05-21T03:44:56.260Z,98269.81
2018-05-21T03:47:23.779Z,98276.17
2018-05-21T03:49:51.298Z,98276.69
2018-05-21T03:52:18.801Z,98276.41
2018-05-21T03:54:46.366Z,98267.06
2018-05-21T03:57:13.955Z,98273.83
2018-05-21T03:59:53.469Z,98272.28
2018-05-21T04:02:33.008Z,98270.48
2018-05-21T04:05:00.544Z,98269.63
2018-05-21T04:07:28.259Z,98267.88
2018-05-21T04:09:55.766Z,98261.48
2018-05-21T04:12:23.753Z,98262.25
2018-05-21T04:14:51.457Z,98258.95
2018-05-21T04:17:19.316Z,98262.51
2018-05-21T04:19:46.975Z,98262.43
2018-05-21T04:22:14.518Z,98264.23
2018-05-21T04:24:42.064Z,98260.63
2018-05-21T04:27:09.592Z,98264.14
2018-05-21T04:29:37.103Z,98261.89
2018-05-21T04:32:04.729Z,98268.26
2018-05-21T04:34:32.249Z,98268.44
2018-05-21T04:37:00.720Z,98274.26
2018-05-21T04:39:28.269Z,98273.40
2018-05-21T04:41:55.837Z,98267.31
2018-05-21T04:44:23.388Z,98272.53
2018-05-21T04:46:50.918Z,98272.14
2018-05-21T04:49:18.933Z,98270.84
2018-05-21T04:51:46.562Z,98263.59
2018-05-21T04:54:14.086Z,98266.97
2018-05-21T04:56:41.963Z,98273.80
2018-05-21T04:59:09.507Z,98271.20
2018-05-21T05:01:37.047Z,98273.11
2018-05-21T05:04:04.667Z,98268.89
2018-05-21T05:06:32.267Z,98265.67
2018-05-21T05:08:59.796Z,98268.42
2018-05-21T05:11:27.465Z,98267.71
2018-05-21T05:13:55.019Z,98265.61
2018-05-21T05:16:22.742Z,98261.09
2018-05-21T05:18:50.269Z,98269.27
2018-05-21T05:21:17.810Z,98263.72
2018-05-21T05:23:45.345Z,98265.54
2018-05-21T05:26:12.868Z,98264.06
2018-05-21T05:28:40.514Z,98255.78
2018-05-21T05:31:08.040Z,98258.22
2018-05-21T05:33:35.592Z,98254.91
2018-05-21T05:36:03.148Z,98259.86
2018-05-21T05:38:30.676Z,98261.02
2018-05-21T05:40:58.228Z,98256.72
2018-05-21T05:43:25.923Z,98250.81
2018-05-21T05:45:53.474Z,98245.87
2018-05-21T05:48:21.084Z,98247.15
2018-05-21T05:50:48.676Z,98249.66
2018-05-21T05:53:16.927Z,98246.69
2018-05-21T05:55:44.476Z,98253.25
2018-05-21T05:58:13.166Z,98251.06
2018-05-21T06:00:40.894Z,98250.27
2018-05-21T06:03:08.436Z,98250.38
2018-05-21T06:05:36.139Z,98246.55
2018-05-21T06:08:03.679Z,98255.39
2018-05-21T06:10:31.229Z,98254.99
2018-05-21T06:12:58.755Z,98248.15
2018-05-21T06:15:26.306Z,98247.00
2018-05-21T06:17:53.840Z,98254.08
2018-05-21T06:20:21.510Z,98255.82
2018-05-21T06:22:49.075Z,98263.70
2018-05-21T06:25:16.673Z,98258.73
2018-05-21T06:27:45.313Z,98256.88
2018-05-21T06:30:14.258Z,98254.20
2018-05-21T06:32:41.785Z,98254.41
2018-05-21T06:35:09.422Z,98251.89
2018-05-21T06:37:36.970Z,98248.27
2018-05-21T06:40:04.520Z,98250.67
2018-05-21T06:42:32.968Z,98248.69
2018-05-21T06:45:00.502Z,98249.17
2018-05-21T06:47:28.138Z,98251.42
2018-05-21T06:49:55.682Z,98255.86
2018-05-21T06:52:23.271Z,98245.64
2018-05-21T06:54:50.841Z,98251.98
2018-05-21T06:57:18.463Z,98247.47
2018-05-21T06:59:46.111Z,98249.12
2018-05-21T07:02:13.604Z,98248.80
2018-05-21T07:04:41.351Z,98255.73
2018-05-21T07:07:08.925Z,98252.79
2018-05-21T07:09:36.478Z,98247.09
2018-05-21T07:12:04.118Z,98244.04
2018-05-21T07:14:32.844Z,98237.94
2018-05-21T07:17:00.505Z,98237.25
2018-05-21T07:19:28.186Z,98238.23
2018-05-21T07:21:55.857Z,98235.78
2018-05-21T07:24:23.432Z,98234.98
2018-05-21T07:26:51.030Z,98230.80
2018-05-21T07:29:18.679Z,98234.30
2018-05-21T07:31:46.232Z,98230.08
2018-05-21T07:34:13.792Z,98230.78
2018-05-21T07:36:41.365Z,98231.17
2018-05-21T07:39:08.888Z,98230.31
2018-05-21T07:41:36.544Z,98229.77
2018-05-21T07:44:04.115Z,98229.23
2018-05-21T07:46:31.663Z,98226.47
2018-05-21T07:48:59.201Z,98227.44
2018-05-21T07:51:27.576Z,98223.69
2018-05-21T07:53:55.192Z,98219.43
2018-05-21T07:56:22.749Z,98228.07
2018-05-21T07:58:50.521Z,98226.70
2018-05-21T08:01:18.053Z,98225.45
2018-05-21T08:03:45.587Z,98215.30
2018-05-21T08:06:13.174Z,98214.80
2018-05-21T08:08:40.681Z,98214.97
2018-05-21T08:11:08.291Z,98205.56
2018-05-21T08:13:35.957Z,98204.74
2018-05-21T08:16:03.521Z,98203.36
2018-05-21T08:18:31.132Z,98202.84
2018-05-21T08:20:58.641Z,98207.83
2018-05-21T08:23:26.164Z,98204.98
2018-05-21T08:25:54.402Z,98200.13
2018-05-21T08:28:21.920Z,98201.20
2018-05-21T08:30:49.474Z,98202.33
2018-05-21T08:33:17.010Z,98207.31
2018-05-21T08:35:44.592Z,98197.89
2018-05-21T08:38:12.187Z,98196.93
2018-05-21T08:40:39.749Z,98201.31
2018-05-21T08:43:07.394Z,98195.41
2018-05-21T08:45:34.932Z,98195.78
2018-05-21T08:48:04.451Z,98195.95
2018-05-21T08:50:32.110Z,98193.22
2018-05-21T08:52:59.709Z,98194.91
2018-05-21T08:55:28.335Z,98197.25
2018-05-21T08:57:55.988Z,98192.48
2018-05-21T09:00:23.638Z,98191.61
2018-05-21T09:02:51.264Z,98190.34
2018-05-21T09:05:18.860Z,98186.52
2018-05-21T09:07:46.405Z,98179.37
2018-05-21T09:10:13.923Z,98177.17
2018-05-21T09:12:41.490Z,98184.94
2018-05-21T09:15:09.089Z,98184.76
2018-05-21T09:17:36.685Z,98182.94
2018-05-21T09:20:04.352Z,98177.81
2018-05-21T09:22:31.986Z,98182.00
2018-05-21T09:24:59.469Z,98180.90
2018-05-21T09:27:27.029Z,98177.07
2018-05-21T09:29:54.612Z,98176.39
2018-05-21T09:32:22.199Z,98170.09
2018-05-21T09:34:50.189Z,98166.80
2018-05-21T09:37:17.750Z,98167.77
2018-05-21T09:39:45.373Z,98166.17
2018-05-21T09:42:12.945Z,98167.13
2018-05-21T09:44:40.543Z,98163.41
2018-05-21T09:47:08.215Z,98157.92
2018-05-21T09:49:35.745Z,98158.83
2018-05-21T09:52:03.343Z,98153.02
2018-05-21T09:54:30.882Z,98157.39
2018-05-21T09:56:58.391Z,98153.94
2018-05-21T09:59:25.919Z,98144.14
2018-05-21T10:01:53.523Z,98139.72
2018-05-21T10:04:21.089Z,98137.95
2018-05-21T10:06:48.644Z,98144.85
2018-05-21T10:09:16.189Z,98140.59
2018-05-21T10:11:43.718Z,98131.64
2018-05-21T10:14:11.231Z,98130.84
2018-05-21T10:16:38.807Z,98131.17
2018-05-21T10:19:06.365Z,98129.02
2018-05-21T10:21:33.923Z,98130.70
2018-05-21T10:24:01.483Z,98131.59
2018-05-21T10:26:29.041Z,98123.93
2018-05-21T10:28:56.615Z,98121.16
2018-05-21T10:31:24.188Z,98119.34
2018-05-21T10:33:52.092Z,98118.89
2018-05-21T10:36:19.688Z,98121.84
2018-05-21T10:38:47.218Z,98121.56
2018-05-21T10:41:15.108Z,98119.50
2018-05-21T10:43:42.782Z,98117.56
2018-05-21T10:46:10.437Z,98115.72
2018-05-21T10:48:38.037Z,98116.73
2018-05-21T10:51:05.612Z,98106.09
2018-05-21T10:53:33.223Z,98098.17
2018-05-21T10:56:00.766Z,98108.38
2018-05-21T10:58:29.600Z,98098.94
2018-05-21T11:00:57.150Z,98105.44
2018-05-21T11:03:25.009Z,98103.75
2018-05-21T11:05:52.678Z,98099.44
2018-05-21T11:08:20.416Z,98094.57
2018-05-21T11:10:47.985Z,98095.71
2018-05-21T11:13:15.593Z,98092.23
2018-05-21T11:15:43.168Z,98090.87
2018-05-21T11:18:10.701Z,98085.10
2018-05-21T11:20:38.292Z,98087.70
2018-05-21T11:23:05.839Z,98079.31
2018-05-21T11:25:33.420Z,98079.92
2018-05-21T11:28:00.926Z,98079.16
2018-05-21T11:30:28.450Z,98077.40
2018-05-21T11:32:56.076Z,98073.28
2018-05-21T11:35:23.592Z,98068.95
2018-05-21T11:37:51.182Z,98067.08
2018-05-21T11:40:18.726Z,98065.80
2018-05-21T11:42:46.343Z,98057.53
2018-05-21T11:45:13.965Z,98057.28
2018-05-21T11:47:41.588Z,98051.46
2018-05-21T11:50:09.142Z,98049.59
2018-05-21T11:52:36.821Z,98052.17
2018-05-21T11:55:04.321Z,98047.36
2018-05-21T11:57:31.838Z,98048.14
2018-05-21T11:59:59.403Z,98042.84
2018-05-21T12:02:26.927Z,98037.44
2018-05-21T12:04:54.521Z,98038.48
2018-05-21T12:07:22.111Z,98030.41
2018-05-21T12:09:49.664Z,98032.91
2018-05-21T12:12:17.224Z,98029.31
2018-05-21T12:14:44.782Z,98024.88
2018-05-21T12:17:12.420Z,98024.90
2018-05-21T12:19:39.979Z,98020.25
2018-05-21T12:22:07.548Z,98015.78
2018-05-21T12:24:35.115Z,98011.63
2018-05-21T12:27:02.646Z,98015.23
2018-05-21T12:29:30.255Z,98007.84
2018-05-21T12:31:57.815Z,98012.70
2018-05-21T12:34:25.376Z,98010.73
2018-05-21T12:36:52.952Z,98010.91
2018-05-21T12:39:20.521Z,98013.80
2018-05-21T12:41:48.147Z,98004.66
2018-05-21T12:44:15.684Z,97999.78
2018-05-21T12:46:43.226Z,98001.58
2018-05-21T12:49:10.767Z,97996.67
2018-05-21T12:51:38.350Z,97996.22
2018-05-21T12:54:05.989Z,97995.83
2018-05-21T12:56:33.520Z,97989.88
2018-05-21T12:59:01.059Z,97986.51
2018-05-21T13:01:28.603Z,97991.70
2018-05-21T13:03:56.134Z,97985.00
2018-05-21T13:06:23.661Z,97991.64
2018-05-21T13:08:51.221Z,97979.82
2018-05-21T13:11:18.753Z,97981.82
2018-05-21T13:13:46.328Z,97987.25
2018-05-21T13:16:13.900Z,97982.27
2018-05-21T13:18:41.429Z,97978.36
2018-05-21T13:21:08.968Z,97971.71
2018-05-21T13:23:36.521Z,97975.42
2018-05-21T13:26:04.074Z,97974.95
2018-05-21T13:28:31.705Z,97974.36
2018-05-21T13:30:59.260Z,97968.52
2018-05-21T13:33:26.809Z,97969.83
2018-05-21T13:35:54.375Z,97964.53
2018-05-21T13:38:22.000Z,97954.14
2018-05-21T13:40:49.582Z,97952.19
2018-05-21T13:43:17.271Z,97946.73
2018-05-21T13:45:44.729Z,97948.92
2018-05-21T13:48:12.291Z,97934.70
2018-05-21T13:50:39.854Z,97937.56
2018-05-21T13:53:07.414Z,97933.56
2018-05-21T13:55:34.932Z,97928.80
2018-05-21T13:58:02.523Z,97922.28
2018-05-21T14:00:30.075Z,97924.00
2018-05-21T14:02:57.624Z,97921.14
2018-05-21T14:05:25.181Z,97913.59
2018-05-21T14:07:52.976Z,97909.49
2018-05-21T14:10:20.495Z,97908.35
2018-05-21T14:12:48.159Z,97896.14
2018-05-21T14:15:15.665Z,97898.92
2018-05-21T14:17:43.250Z,97900.46
2018-05-21T14:20:10.799Z,97905.53
2018-05-21T14:22:38.335Z,97894.75
2018-05-21T14:25:05.970Z,97895.25
2018-05-21T14:27:33.534Z,97890.16
2018-05-21T14:30:01.094Z,97881.65
2018-05-21T14:32:28.648Z,97886.91
2018-05-21T14:34:56.192Z,97886.86
2018-05-21T14:37:23.783Z,97881.94
2018-05-21T14:39:51.348Z,97878.36
2018-05-21T14:42:18.917Z,97882.57
2018-05-21T14:44:47.364Z,97880.69
2018-05-21T14:47:14.892Z,97877.84
2018-05-21T14:49:42.548Z,97873.25
2018-05-21T14:52:10.093Z,97870.08
2018-05-21T14:54:37.684Z,97867.27
2018-05-21T14:57:05.341Z,97862.98
2018-05-21T14:59:33.008Z,97859.95
2018-05-21T15:02:00.688Z,97859.48
2018-05-21T15:04:28.275Z,97857.56
2018-05-21T15:06:56.032Z,97855.66
2018-05-21T15:09:23.530Z,97854.88
2018-05-21T15:11:51.190Z,97854.16
2018-05-21T15:14:18.728Z,97851.97
2018-05-21T15:16:46.261Z,97844.02
2018-05-21T15:19:13.877Z,97850.69
2018-05-21T15:21:41.430Z,97851.16
2018-05-21T15:24:08.932Z,97850.49
2018-05-21T15:26:36.528Z,97841.70
2018-05-21T15:29:04.212Z,97851.27
2018-05-21T15:31:31.916Z,97850.05
2018-05-21T15:33:59.541Z,97850.77
2018-05-21T15:36:27.175Z,97846.91
2018-05-21T15:38:54.835Z,97851.46
2018-05-21T15:41:22.480Z,97844.13
2018-05-21T15:43:50.057Z,97840.85
2018-05-21T15:46:17.849Z,97842.05
2018-05-21T15:51:42.453Z,97842.03
2018-05-21T15:54:10.012Z,97843.55
2018-05-21T15:56:37.787Z,97848.75
2018-05-21T15:59:05.331Z,97852.80
2018-05-21T16:01:32.906Z,97853.58
2018-05-21T16:04:00.581Z,97851.92
2018-05-21T16:06:28.331Z,97850.55
2018-05-21T16:08:55.992Z,97854.73
2018-05-21T16:11:23.533Z,97852.09
2018-05-21T16:13:51.077Z,97856.98
2018-05-21T16:16:18.624Z,97853.09
2018-05-21T16:18:47.117Z,97855.95
2018-05-21T16:21:14.654Z,97855.86
2018-05-21T16:23:42.156Z,97861.08
2018-05-21T16:26:09.759Z,97862.61
2018-05-21T16:28:37.281Z,97856.96
2018-05-21T16:31:04.851Z,97861.63
2018-05-21T16:33:32.395Z,97860.59
2018-05-21T16:35:59.966Z,97859.69
2018-05-21T16:38:27.557Z,97863.92
2018-05-21T16:40:55.095Z,97870.29
2018-05-21T16:43:22.647Z,97869.12
2018-05-21T16:45:50.187Z,97861.38
2018-05-21T16:48:18.149Z,97862.22
2018-05-21T16:50:45.714Z,97859.30
2018-05-21T16:53:13.235Z,97864.42
2018-05-21T16:55:40.786Z,97859.05
2018-05-21T16:58:09.446Z,97864.12
2018-05-21T17:00:37.202Z,97851.86
2018-05-21T17:03:04.751Z,97841.88
2018-05-21T17:05:32.322Z,97837.41
2018-05-21T17:07:59.865Z,97838.80
2018-05-21T17:10:27.383Z,97838.31
2018-05-21T17:12:54.917Z,97838.97
2018-05-21T17:15:22.465Z,97833.59
2018-05-21T17:17:50.037Z,97834.86
2018-05-21T17:20:17.610Z,97833.95
2018-05-21T17:22:45.237Z,97833.61
2018-05-21T17:25:12.811Z,97828.41
2018-05-21T17:27:40.414Z,97831.63
2018-05-21T17:30:08.019Z,97821.77
2018-05-21T17:32:35.652Z,97816.73
2018-05-21T17:35:03.188Z,97814.11
2018-05-21T17:37:30.753Z,97818.23
2018-05-21T17:39:58.269Z,97817.66
2018-05-21T17:42:26.007Z,97818.14
2018-05-21T17:44:54.380Z,97820.65
2018-05-21T17:47:22.384Z,97819.19
2018-05-21T17:49:49.939Z,97818.44
2018-05-21T17:52:17.459Z,97823.97
2018-05-21T17:54:45.013Z,97826.88
2018-05-21T17:57:12.772Z,97828.79
2018-05-21T17:59:40.796Z,97835.27
2018-05-21T18:02:08.343Z,97841.78
2018-05-21T18:04:35.889Z,97847.93
2018-05-21T18:07:03.414Z,97842.05
2018-05-21T18:09:30.991Z,97847.67
2018-05-21T18:11:58.538Z,97851.93
2018-05-21T18:14:26.138Z,97847.45
2018-05-21T18:16:53.676Z,97849.16
2018-05-21T18:19:21.218Z,97854.77
2018-05-21T18:21:48.773Z,97849.81
2018-05-21T18:24:16.330Z,97848.27
2018-05-21T18:26:43.874Z,97854.25
2018-05-21T18:29:11.544Z,97859.74
2018-05-21T18:31:39.088Z,97860.45
2018-05-21T18:34:06.632Z,97859.81
2018-05-21T18:36:34.232Z,97865.15
2018-05-21T18:39:01.782Z,97858.63
2018-05-21T18:41:29.326Z,97852.12
2018-05-21T18:43:56.886Z,97858.86
2018-05-21T18:46:24.416Z,97858.44
2018-05-21T18:48:52.312Z,97859.89
2018-05-21T18:51:20.116Z,97877.86
2018-05-21T18:53:47.782Z,97881.45
2018-05-21T18:56:15.295Z,97890.08
2018-05-21T18:58:43.186Z,97894.02
2018-05-21T19:01:10.757Z,97900.13
2018-05-21T19:03:38.288Z,97899.91
2018-05-21T19:06:06.132Z,97898.14
2018-05-21T19:08:33.674Z,97899.00
2018-05-21T19:11:01.219Z,97902.70
2018-05-21T19:13:28.891Z,97906.03
2018-05-21T19:15:56.452Z,97903.83
2018-05-21T19:18:24.030Z,97912.66
2018-05-21T19:20:51.579Z,97905.16
2018-05-21T19:23:19.101Z,97906.42
2018-05-21T19:25:46.668Z,97912.17
2018-05-21T19:28:15.583Z,97912.22
2018-05-21T19:30:43.167Z,97912.80
2018-05-21T19:33:10.704Z,97916.12
2018-05-21T19:35:38.292Z,97920.34
2018-05-21T19:38:05.840Z,97916.89
2018-05-21T19:40:33.455Z,97914.47
2018-05-21T19:43:01.028Z,97918.66
2018-05-21T19:45:29.292Z,97928.50
2018-05-21T19:47:56.833Z,97932.60
2018-05-21T19:50:24.541Z,97943.59
2018-05-21T19:52:52.265Z,97935.14
2018-05-21T19:55:20.159Z,97939.53
2018-05-21T19:57:47.763Z,97934.67
2018-05-21T20:00:15.882Z,97934.82
2018-05-21T20:02:43.440Z,97934.48
2018-05-21T20:05:11.065Z,97937.41
2018-05-21T20:07:38.556Z,97935.02
2018-05-21T20:10:07.030Z,97936.93
2018-05-21T20:12:34.642Z,97938.80
2018-05-21T20:15:02.213Z,97934.85
2018-05-21T20:17:29.769Z,97924.98
2018-05-21T20:19:57.375Z,97923.23
2018-05-21T20:22:24.943Z,97920.29
2018-05-21T20:24:52.500Z,97924.31
2018-05-21T20:27:20.081Z,97925.34
2018-05-21T20:29:47.733Z,97927.55
2018-05-21T20:32:15.336Z,97923.12
2018-05-21T20:34:42.865Z,97931.84
2018-05-21T20:37:10.537Z,97937.06
2018-05-21T20:39:38.199Z,97926.95
2018-05-21T20:42:05.759Z,97931.14
2018-05-21T20:44:33.321Z,97928.70
2018-05-21T20:47:02.410Z,97928.28
2018-05-21T20:49:31.953Z,97938.58
2018-05-21T20:52:00.741Z,97930.28
2018-05-21T20:54:28.461Z,97929.96
2018-05-21T20:56:56.156Z,97918.03
2018-05-21T20:59:23.770Z,97915.98
2018-05-21T21:01:51.329Z,97898.98
2018-05-21T21:04:18.920Z,97898.96
2018-05-21T21:06:46.429Z,97900.62
2018-05-21T21:09:14.521Z,97909.19
2018-05-21T21:11:42.922Z,97914.27
2018-05-21T21:14:10.670Z,97920.50
2018-05-21T21:16:38.312Z,97921.11
2018-05-21T21:19:06.033Z,97928.25
2018-05-21T21:21:33.675Z,97920.22
2018-05-21T21:24:01.258Z,97908.84
2018-05-21T21:26:29.795Z,97908.59
2018-05-21T21:28:57.469Z,97918.95
2018-05-21T21:31:25.228Z,97906.36
2018-05-21T21:33:52.816Z,97899.02
2018-05-21T21:36:20.364Z,97880.94
2018-05-21T21:38:48.563Z,97879.36
2018-05-21T21:41:16.351Z,97896.61
2018-05-21T21:43:45.135Z,97895.13
2018-05-21T21:46:13.464Z,97895.13
2018-05-21T21:48:41.056Z,97902.73
2018-05-21T21:51:08.723Z,97892.69
2018-05-21T21:53:36.425Z,97895.52
2018-05-21T21:56:04.621Z,97893.29
2018-05-21T21:58:32.275Z,97893.05
2018-05-21T22:01:00.449Z,97899.13
2018-05-21T22:03:28.117Z,97899.51
2018-05-21T22:05:55.779Z,97904.66
2018-05-21T22:08:23.350Z,97910.98
2018-05-21T22:10:51.029Z,97906.00
2018-05-21T22:13:18.749Z,97898.89
2018-05-21T22:15:47.457Z,97899.02
2018-05-21T22:18:15.064Z,97894.33
2018-05-21T22:20:42.865Z,97905.71
2018-05-21T22:23:10.524Z,97894.92
2018-05-21T22:25:38.182Z,97897.84
2018-05-21T22:28:06.171Z,97891.42
2018-05-21T22:30:33.882Z,97890.17
2018-05-21T22:33:01.599Z,97889.83
2018-05-21T22:35:29.373Z,97886.08
2018-05-21T22:37:57.309Z,97888.20
2018-05-21T22:40:24.849Z,97888.25
2018-05-21T22:42:52.729Z,97889.32
2018-05-21T22:45:20.396Z,97886.66
2018-05-21T22:47:47.956Z,97879.61
2018-05-21T22:50:15.590Z,97872.31
2018-05-21T22:52:43.484Z,97870.55
2018-05-21T22:55:11.029Z,97867.42
2018-05-21T22:57:38.649Z,97872.66
2018-05-21T23:00:06.162Z,97872.09
2018-05-21T23:02:33.680Z,97867.78
2018-05-21T23:05:01.286Z,97864.53
2018-05-21T23:07:28.835Z,97865.19
2018-05-21T23:09:56.394Z,97865.74
2018-05-21T23:12:23.904Z,97872.64
2018-05-21T23:14:51.562Z,97877.67
2018-05-21T23:17:19.094Z,97876.20
2018-05-21T23:19:46.656Z,97873.59
2018-05-21T23:22:14.215Z,97867.94
2018-05-21T23:24:41.828Z,97864.22
2018-05-21T23:27:09.380Z,97874.58
2018-05-21T23:29:36.910Z,97882.87
2018-05-21T23:32:04.594Z,97880.08
2018-05-21T23:34:32.208Z,97881.33
2018-05-21T23:36:59.749Z,97883.30
2018-05-21T23:39:27.328Z,97880.60
2018-05-21T23:41:54.926Z,97877.17
2018-05-21T23:44:22.547Z,97875.81
2018-05-21T23:46:50.123Z,97874.48
2018-05-21T23:49:17.655Z,97869.26
2018-05-21T23:51:45.166Z,97876.24
2018-05-21T23:54:12.818Z,97873.34
2018-05-21T23:56:40.379Z,97876.86
2018-05-21T23:59:07.947Z,97876.30
